Time;durP1;ratioP1;P1;durP2;ratioP2;P2;SDS_P1;SDS_P2;PMS_P1;PMS_P2;Temp;Humidity;BMP_temperature;BMP_pressure;BME280_temperature;BME280_humidity;BME280_pressure;Samples;Min_cycle;Max_cycle;Signal;HPM_P1;HPM_P2
2021/10/17 00:01:39;;;;;;;43.67;19.65;;;;;;;3.20;100.00;102078.75;5162615;28;20022;-73
2021/10/17 00:04:09;;;;;;;35.30;18.38;;;;;;;3.18;100.00;102070.88;5188396;28;20124;-71
2021/10/17 00:06:39;;;;;;;39.53;19.33;;;;;;;3.09;100.00;102061.66;5187047;28;20162;-72
2021/10/17 00:09:10;;;;;;;41.45;19.20;;;;;;;3.05;100.00;102069.88;5172250;28;20033;-72
2021/10/17 00:11:40;;;;;;;41.45;20.23;;;;;;;3.02;100.00;102060.31;5187495;28;20371;-73
2021/10/17 00:14:11;;;;;;;43.83;20.40;;;;;;;3.05;100.00;102064.56;5200439;28;20451;-73
2021/10/17 00:16:42;;;;;;;39.30;20.38;;;;;;;3.08;100.00;102054.66;5199728;28;20038;-73
2021/10/17 00:19:12;;;;;;;41.70;21.65;;;;;;;3.13;100.00;102059.69;5195327;28;20025;-73
2021/10/17 00:21:43;;;;;;;57.58;22.50;;;;;;;3.19;100.00;102061.13;5204350;28;20029;-72
2021/10/17 00:24:13;;;;;;;49.20;22.35;;;;;;;3.25;100.00;102066.06;5204045;28;20087;-71
2021/10/17 00:26:44;;;;;;;39.05;20.30;;;;;;;3.30;100.00;102058.69;5183398;28;20028;-72
2021/10/17 00:29:14;;;;;;;49.90;22.27;;;;;;;3.40;100.00;102064.31;5183046;28;20395;-72
2021/10/17 00:31:45;;;;;;;47.28;23.02;;;;;;;3.46;100.00;102075.41;5178031;28;20026;-70
2021/10/17 00:34:16;;;;;;;46.10;21.90;;;;;;;3.53;100.00;102070.63;5180922;28;20026;-73
2021/10/17 00:36:48;;;;;;;40.58;22.23;;;;;;;3.59;100.00;102072.91;5185009;28;20018;-71
2021/10/17 00:39:18;;;;;;;47.10;20.65;;;;;;;3.63;100.00;102072.63;5186337;28;20116;-72
2021/10/17 00:41:51;;;;;;;39.13;20.33;;;;;;;3.67;100.00;102067.16;5172390;28;20022;-72
2021/10/17 00:44:23;;;;;;;41.20;21.13;;;;;;;3.69;100.00;102065.25;5187795;28;20047;-71
2021/10/17 00:46:54;;;;;;;40.65;21.38;;;;;;;3.72;100.00;102057.13;5194915;28;20163;-72
2021/10/17 00:49:26;;;;;;;39.17;18.23;;;;;;;3.64;100.00;102047.78;5191541;28;20108;-72
2021/10/17 00:51:56;;;;;;;32.33;19.25;;;;;;;3.59;100.00;102049.03;5193573;28;20446;-72
2021/10/17 00:54:27;;;;;;;40.72;18.75;;;;;;;3.56;100.00;102054.50;5188644;28;20112;-72
2021/10/17 00:56:58;;;;;;;36.50;19.45;;;;;;;3.65;100.00;102064.56;5196141;28;20041;-72
2021/10/17 00:59:28;;;;;;;39.60;20.25;;;;;;;3.68;100.00;102056.44;5189028;28;20029;-72
2021/10/17 01:01:58;;;;;;;41.35;19.63;;;;;;;3.71;100.00;102042.97;5187017;28;20070;-73
2021/10/17 01:04:31;;;;;;;37.05;19.73;;;;;;;3.73;100.00;102042.91;5197356;28;20065;-73
2021/10/17 01:07:02;;;;;;;42.25;20.13;;;;;;;3.69;100.00;102047.53;5197089;28;20025;-72
2021/10/17 01:09:36;;;;;;;40.85;19.83;;;;;;;3.69;100.00;102044.03;5174182;28;20491;-72
2021/10/17 01:12:07;;;;;;;43.55;20.73;;;;;;;3.72;100.00;102051.81;5175912;28;20025;-72
2021/10/17 01:14:37;;;;;;;35.03;19.67;;;;;;;3.76;100.00;102055.97;5181008;28;20188;-72
2021/10/17 01:17:08;;;;;;;48.10;21.20;;;;;;;3.81;100.00;102049.41;5192612;28;20049;-73
2021/10/17 01:19:45;;;;;;;38.17;20.52;;;;;;;3.86;100.00;102055.31;5175952;28;20403;-72
2021/10/17 01:22:19;;;;;;;38.17;19.67;;;;;;;3.92;100.00;102048.78;5180089;28;20032;-72
2021/10/17 01:24:51;;;;;;;43.67;20.48;;;;;;;3.96;100.00;102047.63;5193498;28;20548;-71
2021/10/17 01:27:21;;;;;;;44.15;21.30;;;;;;;4.02;100.00;102049.09;5179305;28;20314;-72
2021/10/17 01:29:52;;;;;;;41.47;21.20;;;;;;;4.06;100.00;102035.50;5189103;28;20029;-73
2021/10/17 01:32:22;;;;;;;41.25;18.63;;;;;;;4.10;100.00;102038.81;5192374;28;20040;-72
2021/10/17 01:34:53;;;;;;;41.05;20.45;;;;;;;4.11;100.00;102048.50;5187057;28;20049;-72
2021/10/17 01:37:24;;;;;;;43.17;19.88;;;;;;;4.13;100.00;102041.31;5197872;28;20595;-72
2021/10/17 01:39:55;;;;;;;36.28;18.33;;;;;;;4.19;100.00;102034.75;5179660;28;20026;-72
2021/10/17 01:42:30;;;;;;;37.53;19.25;;;;;;;4.24;100.00;102041.47;5192394;28;20064;-71
2021/10/17 01:45:04;;;;;;;39.20;20.88;;;;;;;4.30;100.00;102041.09;5190269;28;20025;-72
2021/10/17 01:47:35;;;;;;;41.50;20.85;;;;;;;4.36;100.00;102039.84;5182154;28;20110;-73
2021/10/17 01:50:06;;;;;;;48.08;22.83;;;;;;;4.39;100.00;102039.66;5179318;28;20018;-72
2021/10/17 01:52:37;;;;;;;41.72;19.60;;;;;;;4.41;100.00;102037.75;5198493;28;20029;-71
2021/10/17 01:55:08;;;;;;;48.58;20.40;;;;;;;4.44;100.00;102042.03;5169281;28;20021;-72
2021/10/17 01:57:39;;;;;;;43.25;20.58;;;;;;;4.47;100.00;102042.69;5166540;28;20030;-72
2021/10/17 02:00:11;;;;;;;36.88;19.15;;;;;;;4.51;100.00;102033.56;5189987;28;20052;-73
2021/10/17 02:02:41;;;;;;;43.15;20.30;;;;;;;4.56;100.00;102033.25;5161844;28;20483;-72
2021/10/17 02:05:12;;;;;;;38.55;19.67;;;;;;;4.60;100.00;102026.81;5179301;28;20020;-72
2021/10/17 02:07:43;;;;;;;40.92;18.85;;;;;;;4.61;100.00;102023.19;5181454;28;20017;-73
2021/10/17 02:10:13;;;;;;;35.60;18.95;;;;;;;4.59;100.00;102025.09;5192647;28;20068;-73
2021/10/17 02:12:44;;;;;;;37.83;19.25;;;;;;;4.65;100.00;102028.22;5161862;28;20036;-72
2021/10/17 02:15:15;;;;;;;43.58;17.67;;;;;;;4.85;100.00;102031.38;5196923;28;20505;-73
2021/10/17 02:17:46;;;;;;;41.65;18.85;;;;;;;4.79;100.00;102032.63;5200045;28;20044;-73
2021/10/17 02:20:17;;;;;;;42.42;19.00;;;;;;;4.80;100.00;102026.34;5199146;28;20471;-72
2021/10/17 02:22:47;;;;;;;51.83;21.95;;;;;;;4.84;100.00;102029.69;5186689;28;20058;-73
2021/10/17 02:25:18;;;;;;;46.38;19.52;;;;;;;4.84;100.00;102025.22;5200003;28;20057;-72
2021/10/17 02:27:48;;;;;;;41.22;19.17;;;;;;;4.84;100.00;102027.03;5199203;28;20112;-71
2021/10/17 02:30:19;;;;;;;41.08;19.23;;;;;;;4.85;100.00;102023.41;5190572;28;20021;-73
2021/10/17 02:32:49;;;;;;;39.83;19.85;;;;;;;4.88;100.00;102028.53;5181597;28;20468;-73
2021/10/17 02:35:20;;;;;;;35.22;18.33;;;;;;;4.90;100.00;102023.94;5199587;28;20467;-73
2021/10/17 02:37:50;;;;;;;39.53;18.33;;;;;;;4.98;100.00;102026.13;5194609;28;20109;-73
2021/10/17 02:40:21;;;;;;;37.17;18.05;;;;;;;5.01;100.00;102023.25;5178289;28;20084;-72
2021/10/17 02:42:51;;;;;;;38.15;18.90;;;;;;;5.05;100.00;102014.09;5191645;28;20022;-72
2021/10/17 02:45:22;;;;;;;37.35;18.20;;;;;;;5.02;100.00;102012.53;5178667;28;20057;-73
2021/10/17 02:47:53;;;;;;;35.03;19.60;;;;;;;5.00;100.00;102013.56;5186437;28;20025;-73
2021/10/17 02:50:23;;;;;;;37.30;17.85;;;;;;;5.04;100.00;102015.06;5186638;28;20022;-73
2021/10/17 02:52:54;;;;;;;38.20;18.50;;;;;;;5.06;100.00;102018.47;5178811;28;20468;-74
2021/10/17 02:55:24;;;;;;;33.13;16.58;;;;;;;5.11;100.00;102019.00;5191354;28;20649;-73
2021/10/17 02:57:56;;;;;;;43.78;19.00;;;;;;;5.13;100.00;102019.78;5178783;28;20127;-74
2021/10/17 03:00:26;;;;;;;38.97;18.92;;;;;;;5.14;100.00;102009.03;5189297;28;20341;-73
2021/10/17 03:02:57;;;;;;;35.47;18.38;;;;;;;5.17;100.00;102010.63;5171674;28;20066;-77
2021/10/17 03:05:28;;;;;;;37.80;17.40;;;;;;;5.18;100.00;102013.19;5185596;28;20035;-73
2021/10/17 03:07:58;;;;;;;49.30;18.25;;;;;;;5.32;100.00;102011.41;5189161;28;20052;-73
2021/10/17 03:10:29;;;;;;;41.83;18.10;;;;;;;5.30;100.00;102014.16;5153536;28;20113;-73
2021/10/17 03:13:00;;;;;;;35.38;17.02;;;;;;;5.31;100.00;102007.88;5184254;28;20100;-73
2021/10/17 03:15:30;;;;;;;34.83;16.65;;;;;;;5.36;100.00;102003.09;5198419;28;20029;-74
2021/10/17 03:18:01;;;;;;;34.55;16.83;;;;;;;5.33;100.00;102003.31;5186003;28;20180;-73
2021/10/17 03:20:32;;;;;;;37.97;15.63;;;;;;;5.32;100.00;102009.63;5180785;28;20030;-74
2021/10/17 03:23:02;;;;;;;42.67;16.25;;;;;;;5.47;100.00;102010.34;5196523;28;20021;-74
2021/10/17 03:25:33;;;;;;;34.90;17.55;;;;;;;5.44;100.00;102008.75;5188388;28;20272;-74
2021/10/17 03:28:04;;;;;;;37.13;17.80;;;;;;;5.42;100.00;102005.38;5181239;28;20117;-72
2021/10/17 03:30:35;;;;;;;35.58;16.27;;;;;;;5.48;100.00;102004.09;5177705;28;20034;-74
2021/10/17 03:33:05;;;;;;;33.47;16.58;;;;;;;5.46;100.00;101998.00;5191871;28;20351;-75
2021/10/17 03:35:36;;;;;;;38.05;18.17;;;;;;;5.45;100.00;102004.28;5190710;28;20105;-74
2021/10/17 03:38:06;;;;;;;31.52;15.57;;;;;;;5.46;100.00;102004.19;5178578;28;20141;-75
2021/10/17 03:40:37;;;;;;;30.15;16.73;;;;;;;5.52;100.00;102004.72;5191086;28;20086;-74
2021/10/17 03:43:07;;;;;;;37.45;17.17;;;;;;;5.51;100.00;102001.19;5183100;28;20018;-74
2021/10/17 03:45:39;;;;;;;40.28;16.75;;;;;;;5.52;100.00;101999.38;5174342;28;20044;-73
2021/10/17 03:48:09;;;;;;;38.63;17.30;;;;;;;5.54;100.00;101994.84;5199060;28;20030;-73
2021/10/17 03:50:40;;;;;;;34.33;18.02;;;;;;;5.56;100.00;101993.75;5188936;28;20021;-73
2021/10/17 03:53:11;;;;;;;41.17;17.25;;;;;;;5.55;100.00;101993.88;5202672;28;20076;-72
2021/10/17 03:55:41;;;;;;;35.03;17.35;;;;;;;5.52;100.00;101991.41;5171266;28;20100;-72
2021/10/17 03:58:12;;;;;;;41.97;17.73;;;;;;;5.53;100.00;101993.13;5202504;28;20109;-74
2021/10/17 04:00:43;;;;;;;37.42;16.85;;;;;;;5.53;100.00;101986.00;5187471;28;20025;-74
2021/10/17 04:03:13;;;;;;;34.38;19.20;;;;;;;5.54;100.00;101987.69;5202774;28;20169;-73
2021/10/17 04:05:44;;;;;;;35.53;17.02;;;;;;;5.57;100.00;101983.94;5195533;28;20026;-73
2021/10/17 04:08:14;;;;;;;33.45;16.67;;;;;;;5.58;100.00;101983.88;5184094;28;20542;-73
2021/10/17 04:10:45;;;;;;;41.22;18.67;;;;;;;5.59;100.00;101985.56;5181667;28;20026;-73
2021/10/17 04:13:15;;;;;;;39.78;17.20;;;;;;;5.61;100.00;101982.78;5184461;28;20451;-73
2021/10/17 04:15:46;;;;;;;34.65;17.40;;;;;;;5.61;100.00;101993.44;5184077;28;20479;-72
2021/10/17 04:18:16;;;;;;;36.85;18.65;;;;;;;5.61;100.00;101994.28;5185036;28;20026;-72
2021/10/17 04:20:47;;;;;;;48.60;20.42;;;;;;;5.62;100.00;101992.47;5191770;28;20029;-73
2021/10/17 04:23:17;;;;;;;40.28;18.95;;;;;;;5.66;100.00;101984.16;5197284;28;20034;-72
2021/10/17 04:25:48;;;;;;;37.45;17.63;;;;;;;5.68;100.00;101984.09;5163962;28;20105;-72
2021/10/17 04:28:18;;;;;;;33.22;15.82;;;;;;;5.70;100.00;101976.81;5181377;28;20407;-73
2021/10/17 04:30:49;;;;;;;39.92;15.57;;;;;;;5.70;100.00;101982.16;5176480;28;20041;-74
2021/10/17 04:33:19;;;;;;;32.40;17.00;;;;;;;5.71;100.00;101979.38;5195135;28;20032;-74
2021/10/17 04:35:50;;;;;;;34.92;16.00;;;;;;;5.73;100.00;101981.94;5182181;28;20025;-73
2021/10/17 04:38:21;;;;;;;40.80;16.33;;;;;;;5.74;100.00;101978.31;5193738;28;20409;-73
2021/10/17 04:40:51;;;;;;;35.13;16.40;;;;;;;5.75;100.00;101979.19;5196079;28;20463;-74
2021/10/17 04:43:21;;;;;;;35.00;16.33;;;;;;;5.74;100.00;101983.66;5191434;28;20038;-74
2021/10/17 04:45:52;;;;;;;37.55;15.93;;;;;;;5.76;100.00;101983.53;5185022;28;20025;-73
2021/10/17 04:48:22;;;;;;;37.60;15.25;;;;;;;5.77;100.00;101987.91;5201471;28;20021;-73
2021/10/17 04:50:53;;;;;;;30.25;15.73;;;;;;;5.77;100.00;101980.75;5190487;28;20140;-72
2021/10/17 04:53:23;;;;;;;32.42;15.93;;;;;;;5.78;100.00;101979.81;5188781;28;20029;-73
2021/10/17 04:55:54;;;;;;;31.92;15.25;;;;;;;5.80;100.00;101980.56;5193527;28;20022;-73
2021/10/17 04:58:27;;;;;;;37.50;14.57;;;;;;;5.81;100.00;101976.06;5194980;28;20056;-72
2021/10/17 05:00:57;;;;;;;53.10;17.40;;;;;;;5.83;100.00;101979.50;5199269;28;20025;-70
2021/10/17 05:03:28;;;;;;;33.00;14.85;;;;;;;5.85;100.00;101978.41;5183582;28;20032;-70
2021/10/17 05:05:58;;;;;;;36.95;18.58;;;;;;;5.85;100.00;101975.75;5200625;28;20475;-70
2021/10/17 05:08:29;;;;;;;44.05;18.27;;;;;;;5.87;100.00;101975.63;5186904;28;20519;-71
2021/10/17 05:10:59;;;;;;;35.47;15.52;;;;;;;5.89;100.00;101979.91;5180388;28;20048;-70
2021/10/17 05:13:30;;;;;;;36.97;16.70;;;;;;;5.90;100.00;101986.94;5180741;28;20022;-70
2021/10/17 05:16:00;;;;;;;32.75;14.60;;;;;;;5.91;100.00;101986.00;5180201;28;20037;-70
2021/10/17 05:18:31;;;;;;;32.10;15.18;;;;;;;5.92;100.00;101987.72;5186194;28;20040;-70
2021/10/17 05:21:02;;;;;;;34.58;14.57;;;;;;;5.94;100.00;101983.13;5187707;28;20160;-71
2021/10/17 05:23:35;;;;;;;27.08;14.90;;;;;;;5.96;100.00;101983.84;5176189;28;20156;-70
2021/10/17 05:26:05;;;;;;;38.97;15.02;;;;;;;5.95;100.00;101976.00;5193403;28;20389;-71
2021/10/17 05:28:36;;;;;;;35.70;14.35;;;;;;;5.94;100.00;101983.13;5188227;28;20391;-70
2021/10/17 05:31:06;;;;;;;37.22;14.13;;;;;;;5.94;100.00;101991.13;5199882;28;20262;-70
2021/10/17 05:33:37;;;;;;;30.58;13.77;;;;;;;5.96;100.00;101988.34;5191372;28;20030;-71
2021/10/17 05:36:08;;;;;;;44.85;14.85;;;;;;;5.96;100.00;101994.50;5196259;28;20506;-71
2021/10/17 05:38:40;;;;;;;29.23;13.57;;;;;;;5.98;100.00;101997.09;5200436;28;20022;-70
2021/10/17 05:41:10;;;;;;;30.65;13.98;;;;;;;6.01;100.00;102004.00;5186582;28;20591;-70
2021/10/17 05:43:41;;;;;;;26.70;13.30;;;;;;;6.01;100.00;102001.34;5188366;28;20114;-70
2021/10/17 05:46:11;;;;;;;30.23;13.57;;;;;;;6.04;100.00;101998.47;5193471;28;20018;-70
2021/10/17 05:48:42;;;;;;;28.42;13.02;;;;;;;6.07;100.00;102000.91;5193504;28;20518;-70
2021/10/17 05:51:12;;;;;;;29.17;13.65;;;;;;;6.06;100.00;102004.53;5189677;28;20565;-70
2021/10/17 05:53:43;;;;;;;27.50;12.60;;;;;;;6.06;100.00;102000.03;5198235;28;20017;-70
2021/10/17 05:56:13;;;;;;;39.05;14.15;;;;;;;6.08;100.00;102013.28;5179636;28;20403;-70
2021/10/17 05:58:44;;;;;;;24.63;12.55;;;;;;;6.08;100.00;102006.13;5164741;28;20025;-71
2021/10/17 06:01:14;;;;;;;27.63;13.43;;;;;;;6.09;100.00;102009.66;5198708;28;20033;-71
2021/10/17 06:03:44;;;;;;;39.72;13.80;;;;;;;6.10;100.00;102012.19;5186344;28;20096;-71
2021/10/17 06:06:15;;;;;;;29.10;12.70;;;;;;;6.11;100.00;102018.38;5187976;28;20049;-70
2021/10/17 06:08:46;;;;;;;27.17;11.95;;;;;;;6.12;100.00;102022.72;5185223;28;20021;-71
2021/10/17 06:11:17;;;;;;;41.92;13.43;;;;;;;6.14;100.00;102015.50;5199604;28;20032;-71
2021/10/17 06:13:47;;;;;;;28.90;12.80;;;;;;;6.15;100.00;102022.53;5191623;28;20411;-71
2021/10/17 06:16:18;;;;;;;26.40;13.73;;;;;;;6.15;100.00;102031.38;5192689;28;20433;-71
2021/10/17 06:18:48;;;;;;;35.80;13.68;;;;;;;6.16;100.00;102032.22;5186732;28;20657;-71
2021/10/17 06:21:19;;;;;;;35.03;13.23;;;;;;;6.18;100.00;102035.66;5197601;28;20043;-71
2021/10/17 06:23:49;;;;;;;26.13;12.88;;;;;;;6.19;100.00;102043.53;5170649;28;20190;-71
2021/10/17 06:26:20;;;;;;;30.38;13.15;;;;;;;6.22;100.00;102047.75;5196637;28;20109;-71
2021/10/17 06:28:50;;;;;;;34.75;12.70;;;;;;;6.25;100.00;102044.91;5189142;28;20554;-71
2021/10/17 06:31:21;;;;;;;29.75;12.93;;;;;;;6.28;100.00;102049.16;5186180;28;20029;-71
2021/10/17 06:33:51;;;;;;;30.63;12.68;;;;;;;6.32;100.00;102046.16;5187615;28;20310;-71
2021/10/17 06:36:22;;;;;;;31.20;13.35;;;;;;;6.34;100.00;102046.91;5197802;28;20487;-72
2021/10/17 06:38:52;;;;;;;34.13;13.00;;;;;;;6.37;100.00;102040.50;5198851;28;20025;-72
2021/10/17 06:41:23;;;;;;;29.50;13.07;;;;;;;6.42;100.00;102049.84;5191815;28;20462;-71
2021/10/17 06:43:53;;;;;;;25.27;12.02;;;;;;;6.43;100.00;102056.06;5178909;28;20109;-71
2021/10/17 06:46:24;;;;;;;26.50;11.77;;;;;;;6.44;100.00;102053.28;5191123;28;20018;-71
2021/10/17 06:48:54;;;;;;;33.35;12.60;;;;;;;6.46;100.00;102056.69;5178076;28;20040;-71
2021/10/17 06:51:25;;;;;;;32.35;12.95;;;;;;;6.54;100.00;102052.63;5188027;28;20422;-71
2021/10/17 06:53:55;;;;;;;32.08;13.43;;;;;;;6.64;100.00;102048.34;5195683;28;20032;-71
2021/10/17 06:56:26;;;;;;;36.40;13.15;;;;;;;6.73;100.00;102042.34;5178069;28;20026;-71
2021/10/17 06:58:56;;;;;;;26.45;12.60;;;;;;;6.75;100.00;102046.56;5191337;28;20032;-71
2021/10/17 07:01:27;;;;;;;29.15;13.13;;;;;;;6.79;100.00;102047.22;5190285;28;20025;-71
2021/10/17 07:03:57;;;;;;;26.83;12.57;;;;;;;6.82;100.00;102044.31;5198781;28;20026;-71
2021/10/17 07:06:28;;;;;;;28.73;12.18;;;;;;;6.91;100.00;102051.63;5199055;28;20478;-71
2021/10/17 07:08:59;;;;;;;30.25;11.35;;;;;;;7.03;100.00;102046.34;5177777;28;20321;-71
2021/10/17 07:11:29;;;;;;;22.13;11.70;;;;;;;7.06;100.00;102052.31;5193324;28;20079;-71
2021/10/17 07:14:00;;;;;;;26.42;11.88;;;;;;;7.13;100.00;102056.25;5198972;28;20029;-71
2021/10/17 07:16:30;;;;;;;32.50;11.55;;;;;;;7.18;100.00;102056.75;5198616;28;20464;-71
2021/10/17 07:19:01;;;;;;;26.33;10.88;;;;;;;7.27;100.00;102056.03;5198305;28;20028;-71
2021/10/17 07:21:31;;;;;;;30.90;11.57;;;;;;;7.37;100.00;102064.22;5198955;28;20395;-71
2021/10/17 07:24:02;;;;;;;23.67;10.55;;;;;;;7.46;100.00;102062.66;5200085;28;20112;-71
2021/10/17 07:26:32;;;;;;;30.20;10.55;;;;;;;7.48;100.00;102060.72;5202931;28;20026;-71
2021/10/17 07:29:03;;;;;;;26.58;11.90;;;;;;;7.52;100.00;102063.03;5202488;28;20029;-71
2021/10/17 07:31:33;;;;;;;25.77;10.63;;;;;;;7.59;100.00;102065.28;5202678;28;20112;-71
2021/10/17 07:34:04;;;;;;;36.03;13.05;;;;;;;7.66;100.00;102069.16;5189060;28;20021;-71
2021/10/17 07:36:34;;;;;;;22.42;10.48;;;;;;;7.74;100.00;102061.44;5182353;28;20110;-71
2021/10/17 07:39:05;;;;;;;28.27;10.52;;;;;;;7.84;100.00;102067.75;5195383;28;20104;-71
2021/10/17 07:41:35;;;;;;;22.08;9.77;;;;;;;7.91;100.00;102066.28;5191008;28;20025;-71
2021/10/17 07:44:06;;;;;;;22.30;10.23;;;;;;;8.06;100.00;102072.28;5188457;28;20072;-71
2021/10/17 07:46:37;;;;;;;22.40;9.43;;;;;;;8.18;100.00;102067.78;5202463;28;20442;-71
2021/10/17 07:49:07;;;;;;;23.02;9.82;;;;;;;8.22;100.00;102069.25;5200898;28;20033;-71
2021/10/17 07:51:38;;;;;;;23.05;9.07;;;;;;;8.30;100.00;102067.66;5193633;28;20105;-71
2021/10/17 07:54:10;;;;;;;34.22;10.73;;;;;;;8.34;100.00;102072.78;5188910;28;20367;-72
2021/10/17 07:56:41;;;;;;;22.75;9.48;;;;;;;8.42;100.00;102073.88;5184717;28;20053;-71
2021/10/17 07:59:11;;;;;;;23.83;9.50;;;;;;;8.53;100.00;102071.22;5188658;28;20029;-71
2021/10/17 08:01:42;;;;;;;20.60;8.65;;;;;;;8.57;100.00;102066.47;5199861;28;20091;-70
2021/10/17 08:04:12;;;;;;;23.85;8.77;;;;;;;8.66;100.00;102070.22;5189904;28;20053;-71
2021/10/17 08:06:43;;;;;;;20.77;8.88;;;;;;;8.79;100.00;102070.94;5202346;28;20020;-71
2021/10/17 08:09:13;;;;;;;21.50;8.45;;;;;;;8.93;100.00;102067.97;5190112;28;20061;-71
2021/10/17 08:11:44;;;;;;;28.83;8.98;;;;;;;9.08;100.00;102077.41;5189143;28;20189;-71
2021/10/17 08:14:14;;;;;;;15.05;8.23;;;;;;;9.54;100.00;102084.31;5202076;28;20109;-71
2021/10/17 08:16:45;;;;;;;18.55;8.68;;;;;;;10.08;100.00;102088.59;5202122;28;20439;-71
2021/10/17 08:19:15;;;;;;;21.05;8.90;;;;;;;10.39;100.00;102088.63;5201534;28;20103;-71
2021/10/17 08:21:46;;;;;;;16.83;7.93;;;;;;;10.63;100.00;102093.66;5178234;28;20084;-71
2021/10/17 08:24:16;;;;;;;14.02;7.97;;;;;;;11.06;100.00;102082.63;5194449;28;20065;-71
2021/10/17 08:26:47;;;;;;;16.77;7.38;;;;;;;11.57;100.00;102084.19;5201676;28;20025;-71
2021/10/17 08:29:17;;;;;;;16.70;7.38;;;;;;;11.92;100.00;102088.13;5201183;28;20033;-72
2021/10/17 08:31:48;;;;;;;21.55;7.47;;;;;;;12.57;100.00;102083.66;5201915;28;20029;-72
2021/10/17 08:34:18;;;;;;;12.35;6.10;;;;;;;12.80;100.00;102081.41;5188297;28;20028;-72
2021/10/17 08:36:49;;;;;;;15.88;6.50;;;;;;;12.99;100.00;102082.25;5200503;28;20013;-72
2021/10/17 08:39:19;;;;;;;15.60;6.72;;;;;;;13.26;100.00;102084.94;5201296;28;20788;-72
2021/10/17 08:41:50;;;;;;;21.27;6.68;;;;;;;13.07;100.00;102077.81;5200979;28;20175;-72
2021/10/17 08:44:21;;;;;;;16.50;5.72;;;;;;;13.30;100.00;102075.53;5183626;28;20403;-72
2021/10/17 08:46:51;;;;;;;13.35;5.65;;;;;;;13.31;100.00;102077.25;5192945;28;20052;-72
2021/10/17 08:49:22;;;;;;;13.25;5.05;;;;;;;13.41;100.00;102083.41;5184415;28;20013;-72
2021/10/17 08:51:53;;;;;;;10.80;5.78;;;;;;;13.54;100.00;102083.00;5194390;28;20034;-72
2021/10/17 08:54:24;;;;;;;12.82;5.53;;;;;;;13.86;100.00;102076.19;5163321;28;20030;-72
2021/10/17 08:56:54;;;;;;;13.02;4.90;;;;;;;13.64;100.00;102072.13;5176192;28;20029;-73
2021/10/17 08:59:25;;;;;;;20.00;5.38;;;;;;;13.87;100.00;102077.88;5180049;28;20133;-72
2021/10/17 09:01:56;;;;;;;15.10;5.70;;;;;;;14.16;100.00;102067.59;5175421;28;20398;-72
2021/10/17 09:04:27;;;;;;;14.48;4.97;;;;;;;13.89;100.00;102071.28;5181050;28;20026;-72
2021/10/17 09:07:15;;;;;;;11.55;5.32;;;;;;;13.94;100.00;102074.38;5196411;28;20048;-72
2021/10/17 09:10:05;;;;;;;12.82;5.47;;;;;;;13.84;100.00;102078.19;5192767;28;20028;-71
2021/10/17 09:12:38;;;;;;;13.15;5.40;;;;;;;13.84;100.00;102080.88;5181007;28;20045;-71
2021/10/17 09:15:29;;;;;;;13.45;5.13;;;;;;;13.86;100.00;102078.88;5197841;28;20032;-72
2021/10/17 09:18:08;;;;;;;14.07;5.50;;;;;;;13.88;100.00;102079.56;5188076;28;20479;-71
2021/10/17 09:20:46;;;;;;;11.75;4.82;;;;;;;13.65;100.00;102074.66;5172729;28;20030;-71
2021/10/17 09:23:31;;;;;;;15.38;5.20;;;;;;;13.74;100.00;102073.72;5193739;28;20025;-72
2021/10/17 09:26:12;;;;;;;13.00;5.03;;;;;;;13.59;100.00;102069.91;5194009;28;20026;-72
2021/10/17 09:28:42;;;;;;;9.57;4.30;;;;;;;13.62;100.00;102071.44;5191999;28;20022;-73
2021/10/17 09:31:16;;;;;;;13.52;5.03;;;;;;;13.54;100.00;102074.91;5182699;28;20033;-72
2021/10/17 09:33:49;;;;;;;10.88;4.40;;;;;;;13.45;100.00;102070.44;5190093;28;20029;-72
2021/10/17 09:36:22;;;;;;;11.55;4.35;;;;;;;13.44;100.00;102066.06;5192938;28;20072;-73
2021/10/17 09:38:57;;;;;;;11.27;5.15;;;;;;;13.52;100.00;102068.00;5192607;28;20021;-73
2021/10/17 09:41:33;;;;;;;12.95;5.05;;;;;;;13.26;100.00;102074.19;5186964;28;20021;-73
2021/10/17 09:44:04;;;;;;;11.65;4.55;;;;;;;13.25;100.00;102071.63;5187072;28;20076;-72
2021/10/17 09:46:35;;;;;;;12.18;5.13;;;;;;;13.30;100.00;102072.00;5190354;28;20041;-73
2021/10/17 09:49:18;;;;;;;15.35;5.07;;;;;;;13.34;100.00;102076.94;5181966;28;20096;-72
2021/10/17 09:51:48;;;;;;;11.43;4.70;;;;;;;13.51;100.00;102075.25;5191963;28;20462;-71
2021/10/17 09:54:21;;;;;;;10.43;4.47;;;;;;;13.43;100.00;102069.78;5180848;28;20115;-72
2021/10/17 09:56:51;;;;;;;19.10;5.30;;;;;;;13.45;100.00;102076.72;5179897;28;20030;-72
2021/10/17 09:59:22;;;;;;;10.90;5.13;;;;;;;13.47;100.00;102077.41;5200348;28;20386;-72
2021/10/17 10:01:52;;;;;;;11.15;5.03;;;;;;;13.58;100.00;102083.53;5183814;28;20032;-72
2021/10/17 10:04:25;;;;;;;13.02;4.57;;;;;;;13.76;100.00;102084.38;5191526;28;20248;-73
2021/10/17 10:06:57;;;;;;;10.63;4.65;;;;;;;13.87;100.00;102088.66;5180846;28;20037;-72
2021/10/17 10:09:30;;;;;;;12.90;4.78;;;;;;;13.80;100.00;102076.78;5190231;28;20028;-72
2021/10/17 10:12:03;;;;;;;12.30;4.32;;;;;;;13.83;100.00;102076.50;5199508;28;20029;-72
2021/10/17 10:14:38;;;;;;;10.48;4.65;;;;;;;13.96;100.00;102083.16;5200002;28;20028;-72
2021/10/17 10:17:09;;;;;;;10.77;4.50;;;;;;;14.09;100.00;102071.94;5186222;28;20018;-73
2021/10/17 10:19:40;;;;;;;9.45;4.38;;;;;;;14.07;100.00;102073.97;5186920;28;20033;-73
2021/10/17 10:22:13;;;;;;;8.60;4.78;;;;;;;13.85;100.00;102071.78;5190936;28;20030;-73
2021/10/17 10:24:50;;;;;;;9.30;4.82;;;;;;;13.81;100.00;102075.81;5181629;28;20491;-73
2021/10/17 10:27:22;;;;;;;11.88;4.75;;;;;;;14.04;100.00;102079.66;5188959;28;20022;-73
2021/10/17 10:30:24;;;;;;;8.77;4.57;;;;;;;13.99;100.00;102080.13;5175155;28;20535;-73
2021/10/17 10:33:05;;;;;;;10.07;4.43;;;;;;;14.17;100.00;102068.44;5194690;28;20117;-73
2021/10/17 10:35:36;;;;;;;16.77;5.28;;;;;;;14.12;100.00;102071.63;5187511;28;20302;-73
2021/10/17 10:38:06;;;;;;;9.48;4.65;;;;;;;13.87;100.00;102076.03;5191708;28;20029;-73
2021/10/17 10:40:37;;;;;;;12.70;4.78;;;;;;;13.92;100.00;102073.69;5190565;28;20128;-72
2021/10/17 10:43:17;;;;;;;10.50;4.72;;;;;;;13.83;100.00;102076.50;5178715;28;20153;-72
2021/10/17 10:46:01;;;;;;;12.85;5.05;;;;;;;13.72;100.00;102064.94;5178431;28;20026;-72
2021/10/17 10:48:45;;;;;;;11.75;4.45;;;;;;;13.69;100.00;102064.41;5191376;28;20398;-72
2021/10/17 10:51:35;;;;;;;8.63;4.72;;;;;;;13.80;100.00;102064.16;5188354;28;20029;-72
2021/10/17 10:54:33;;;;;;;8.88;4.90;;;;;;;13.78;100.00;102062.63;5185782;28;20021;-73
2021/10/17 10:57:18;;;;;;;11.98;4.53;;;;;;;13.74;100.00;102059.41;5185504;28;20053;-72
2021/10/17 11:00:04;;;;;;;14.40;5.05;;;;;;;13.67;100.00;102059.19;5198555;28;20581;-70
2021/10/17 11:02:36;;;;;;;13.77;4.13;;;;;;;13.70;100.00;102056.19;5191339;28;20026;-73
2021/10/17 11:05:16;;;;;;;11.38;5.32;;;;;;;13.74;100.00;102051.31;5191599;28;20033;-72
2021/10/17 11:07:47;;;;;;;10.88;4.45;;;;;;;13.77;100.00;102055.56;5178327;28;20017;-73
2021/10/17 11:10:25;;;;;;;10.68;3.90;;;;;;;13.84;100.00;102062.84;5191310;28;20026;-73
2021/10/17 11:12:57;;;;;;;11.23;4.15;;;;;;;13.88;100.00;102061.53;5178296;28;20033;-73
2021/10/17 11:15:34;;;;;;;15.02;4.50;;;;;;;14.03;100.00;102064.47;5191722;28;20120;-73
2021/10/17 11:18:10;;;;;;;12.38;4.40;;;;;;;13.97;100.00;102059.72;5178305;28;20025;-73
2021/10/17 11:20:43;;;;;;;13.27;4.68;;;;;;;14.08;100.00;102054.06;5187778;28;20033;-73
2021/10/17 11:23:19;;;;;;;11.38;4.32;;;;;;;14.03;100.00;102053.69;5194159;28;20030;-73
2021/10/17 11:25:59;;;;;;;13.02;4.45;;;;;;;14.06;100.00;102045.28;5178092;28;20026;-73
2021/10/17 11:28:32;;;;;;;11.43;4.57;;;;;;;14.22;100.00;102055.31;5196673;28;20025;-73
2021/10/17 11:31:07;;;;;;;9.63;4.43;;;;;;;14.45;100.00;102045.63;5185158;28;20030;-73